createdAt,value
2023-03-29T00:01:35.350Z,2.63
2023-03-29T00:04:06.269Z,4.10
2023-03-29T00:06:34.788Z,2.57
2023-03-29T00:09:05.392Z,3.27
2023-03-29T00:11:33.681Z,3.30
2023-03-29T00:14:01.548Z,2.20
2023-03-29T00:16:29.425Z,2.83
2023-03-29T00:18:57.260Z,3.37
2023-03-29T00:21:26.691Z,2.47
2023-03-29T00:23:54.536Z,2.33
2023-03-29T00:26:22.318Z,2.47
2023-03-29T00:28:50.175Z,3.03
2023-03-29T00:31:19.313Z,1.77
2023-03-29T00:33:47.486Z,2.07
2023-03-29T00:36:16.062Z,2.40
2023-03-29T00:38:45.397Z,2.67
2023-03-29T00:41:13.300Z,2.43
2023-03-29T00:43:58.391Z,1.97
2023-03-29T00:46:27.540Z,1.90
2023-03-29T00:48:59.665Z,2.23
2023-03-29T00:51:32.017Z,2.50
2023-03-29T00:54:04.472Z,2.10
2023-03-29T00:56:37.113Z,2.20
2023-03-29T00:59:08.226Z,2.20
2023-03-29T01:01:42.256Z,2.33
2023-03-29T01:04:18.510Z,2.37
2023-03-29T01:06:51.611Z,2.50
2023-03-29T01:09:23.200Z,2.67
2023-03-29T01:11:57.053Z,2.30
2023-03-29T01:14:31.532Z,2.40
2023-03-29T01:16:59.441Z,2.10
2023-03-29T01:19:33.902Z,2.50
2023-03-29T01:22:13.540Z,2.63
2023-03-29T01:24:55.673Z,2.23
2023-03-29T01:27:48.646Z,2.87
2023-03-29T01:30:22.191Z,1.87
2023-03-29T01:32:56.933Z,2.80
2023-03-29T01:35:32.561Z,2.57
2023-03-29T01:38:07.276Z,2.10
2023-03-29T01:40:35.834Z,2.03
2023-03-29T01:43:17.515Z,2.13
2023-03-29T01:45:50.973Z,2.10
2023-03-29T01:48:26.060Z,2.00
2023-03-29T01:50:56.982Z,2.40
2023-03-29T01:53:30.600Z,1.90
2023-03-29T01:56:04.396Z,2.30
2023-03-29T01:58:38.538Z,3.10
2023-03-29T02:01:10.452Z,2.20
2023-03-29T02:03:44.430Z,2.13
2023-03-29T02:06:14.932Z,2.50
2023-03-29T02:08:44.013Z,2.10
2023-03-29T02:11:14.929Z,1.90
2023-03-29T02:13:44.450Z,2.10
2023-03-29T02:16:14.267Z,1.87
2023-03-29T02:18:45.140Z,1.90
2023-03-29T02:21:21.199Z,2.00
2023-03-29T02:23:51.582Z,2.10
2023-03-29T02:26:19.657Z,1.70
2023-03-29T02:28:49.301Z,1.70
2023-03-29T02:31:26.083Z,2.57
2023-03-29T02:34:00.409Z,1.70
2023-03-29T02:36:32.132Z,2.67
2023-03-29T02:39:04.333Z,1.93
2023-03-29T02:41:35.033Z,2.00
2023-03-29T02:44:07.727Z,2.47
2023-03-29T02:46:37.842Z,2.70
2023-03-29T02:49:06.649Z,1.90
2023-03-29T02:51:37.572Z,1.83
2023-03-29T02:54:09.127Z,1.90
2023-03-29T02:56:44.694Z,1.80
2023-03-29T02:59:14.474Z,2.17
2023-03-29T03:01:42.808Z,1.93
2023-03-29T03:04:11.234Z,1.87
2023-03-29T03:06:39.697Z,1.63
2023-03-29T03:09:07.993Z,1.57
2023-03-29T03:11:38.614Z,1.77
2023-03-29T03:14:07.539Z,2.43
2023-03-29T03:16:38.636Z,2.10
2023-03-29T03:19:06.954Z,1.90
2023-03-29T03:21:35.205Z,1.77
2023-03-29T03:24:03.247Z,2.47
2023-03-29T03:26:31.152Z,2.43
2023-03-29T03:28:59.115Z,1.90
2023-03-29T03:31:54.457Z,1.90
2023-03-29T03:34:41.089Z,1.80
2023-03-29T03:37:12.050Z,1.90
2023-03-29T03:39:40.312Z,2.00
2023-03-29T03:42:10.033Z,2.00
2023-03-29T03:44:43.117Z,1.77
2023-03-29T03:47:45.400Z,2.57
2023-03-29T03:50:39.177Z,1.67
2023-03-29T03:53:08.324Z,2.20
2023-03-29T03:55:56.923Z,1.80
2023-03-29T03:58:28.568Z,2.97
2023-03-29T04:00:58.043Z,1.77
2023-03-29T04:03:40.973Z,1.63
2023-03-29T04:06:12.465Z,1.73
2023-03-29T04:09:00.217Z,1.90
2023-03-29T04:11:35.672Z,1.67
2023-03-29T04:14:04.373Z,1.80
2023-03-29T04:16:52.533Z,2.43
2023-03-29T04:19:46.838Z,2.23
2023-03-29T04:22:15.054Z,2.83
2023-03-29T04:24:43.847Z,1.27
2023-03-29T04:27:40.849Z,1.90
2023-03-29T04:30:22.023Z,1.63
2023-03-29T04:33:10.260Z,2.93
2023-03-29T04:35:42.416Z,1.30
2023-03-29T04:38:17.053Z,1.50
2023-03-29T04:40:48.481Z,1.60
2023-03-29T04:43:46.338Z,1.57
2023-03-29T04:46:33.347Z,1.73
2023-03-29T04:49:25.999Z,1.70
2023-03-29T04:51:55.978Z,2.83
2023-03-29T04:54:27.900Z,2.50
2023-03-29T04:57:03.084Z,3.40
2023-03-29T04:59:54.421Z,2.73
2023-03-29T05:02:51.627Z,1.70
2023-03-29T05:05:20.158Z,1.47
2023-03-29T05:07:51.780Z,1.40
2023-03-29T05:10:24.535Z,1.57
2023-03-29T05:12:54.115Z,2.17
2023-03-29T05:15:23.796Z,1.57
2023-03-29T05:17:51.636Z,1.63
2023-03-29T05:20:19.494Z,1.50
2023-03-29T05:22:48.667Z,2.70
2023-03-29T05:25:37.867Z,1.30
2023-03-29T05:28:05.784Z,1.33
2023-03-29T05:30:33.753Z,2.10
2023-03-29T05:33:10.410Z,1.57
2023-03-29T05:35:40.776Z,2.77
2023-03-29T05:38:09.726Z,1.73
2023-03-29T05:40:41.408Z,2.17
2023-03-29T05:43:41.175Z,2.67
2023-03-29T05:46:09.292Z,3.40
2023-03-29T05:48:42.133Z,2.37
2023-03-29T05:51:11.403Z,1.80
2023-03-29T05:53:39.486Z,1.40
2023-03-29T05:56:10.820Z,1.70
2023-03-29T05:58:39.368Z,1.83
2023-03-29T06:01:12.814Z,1.67
2023-03-29T06:03:55.845Z,1.70
2023-03-29T06:06:27.883Z,1.37
2023-03-29T06:08:56.004Z,1.90
2023-03-29T06:11:40.973Z,1.47
2023-03-29T06:14:30.489Z,1.23
2023-03-29T06:17:17.547Z,1.40
2023-03-29T06:19:47.619Z,4.27
2023-03-29T06:22:19.118Z,3.27
2023-03-29T06:24:47.134Z,2.43
2023-03-29T06:27:25.277Z,2.10
2023-03-29T06:29:56.610Z,2.50
2023-03-29T06:32:24.478Z,1.67
2023-03-29T06:34:58.671Z,2.93
2023-03-29T06:37:50.447Z,1.30
2023-03-29T06:40:25.693Z,1.50
2023-03-29T06:42:59.663Z,1.37
2023-03-29T06:45:48.248Z,2.33
2023-03-29T06:48:30.279Z,1.47
2023-03-29T06:50:58.571Z,2.53
2023-03-29T06:53:29.795Z,2.57
2023-03-29T06:56:05.169Z,1.40
2023-03-29T06:58:42.481Z,1.60
2023-03-29T07:01:28.686Z,1.57
2023-03-29T07:04:08.155Z,1.70
2023-03-29T07:06:58.726Z,1.30
2023-03-29T07:09:29.866Z,1.53
2023-03-29T07:12:16.786Z,2.20
2023-03-29T07:14:46.840Z,3.50
2023-03-29T07:17:16.683Z,1.60
2023-03-29T07:19:44.583Z,1.50
2023-03-29T07:22:15.290Z,1.93
2023-03-29T07:24:50.783Z,1.70
2023-03-29T07:27:19.572Z,1.73
2023-03-29T07:29:51.609Z,2.30
2023-03-29T07:32:20.437Z,1.57
2023-03-29T07:34:56.668Z,2.10
2023-03-29T07:37:31.455Z,3.53
2023-03-29T07:40:01.090Z,2.13
2023-03-29T07:42:56.726Z,1.53
2023-03-29T07:45:29.608Z,3.07
2023-03-29T07:48:02.129Z,1.67
2023-03-29T07:50:45.624Z,2.03
2023-03-29T07:53:14.097Z,3.60
2023-03-29T07:55:47.286Z,2.27
2023-03-29T07:58:38.553Z,2.67
2023-03-29T08:01:10.032Z,2.00
2023-03-29T08:03:58.641Z,1.40
2023-03-29T08:06:46.739Z,2.63
2023-03-29T08:09:14.701Z,1.67
2023-03-29T08:11:45.315Z,2.57
2023-03-29T08:14:23.828Z,3.33
2023-03-29T08:17:07.518Z,2.50
2023-03-29T08:19:41.096Z,2.30
2023-03-29T08:22:25.278Z,3.63
2023-03-29T08:25:23.433Z,2.00
2023-03-29T08:27:57.343Z,2.40
2023-03-29T08:30:37.317Z,3.83
2023-03-29T08:33:07.869Z,2.03
2023-03-29T08:35:36.245Z,1.70
2023-03-29T08:38:12.956Z,1.50
2023-03-29T08:40:41.347Z,1.40
2023-03-29T08:43:35.319Z,1.47
2023-03-29T08:46:34.499Z,3.67
2023-03-29T08:49:17.505Z,1.77
2023-03-29T08:51:48.976Z,2.30
2023-03-29T08:54:20.522Z,2.13
2023-03-29T08:57:16.991Z,2.80
2023-03-29T08:59:51.904Z,1.30
2023-03-29T09:02:24.403Z,3.70
2023-03-29T09:05:03.322Z,3.70
2023-03-29T09:07:43.184Z,3.23
2023-03-29T09:10:15.628Z,1.40
2023-03-29T09:12:55.962Z,2.03
2023-03-29T09:15:29.344Z,1.57
2023-03-29T09:18:15.038Z,3.20
2023-03-29T09:20:53.342Z,2.43
2023-03-29T09:23:48.317Z,2.83
2023-03-29T09:26:37.493Z,2.63
2023-03-29T09:29:32.228Z,1.60
2023-03-29T09:32:04.354Z,1.60
2023-03-29T09:34:42.200Z,3.27
2023-03-29T09:37:24.675Z,2.70
2023-03-29T09:39:55.700Z,2.40
2023-03-29T09:42:30.216Z,4.50
2023-03-29T09:45:03.399Z,2.43
2023-03-29T09:47:43.246Z,1.33
2023-03-29T09:50:29.608Z,3.73
2023-03-29T09:53:01.328Z,2.23
2023-03-29T09:55:34.094Z,1.73
2023-03-29T09:58:24.655Z,1.67
2023-03-29T10:00:58.115Z,2.73
2023-03-29T10:03:28.391Z,1.93
2023-03-29T10:06:10.860Z,2.13
2023-03-29T10:08:47.743Z,2.00
2023-03-29T10:11:23.231Z,1.73
2023-03-29T10:13:55.054Z,2.50
2023-03-29T10:16:24.597Z,2.00
2023-03-29T10:18:54.606Z,2.83
2023-03-29T10:21:23.818Z,2.33
2023-03-29T10:23:59.426Z,3.50
2023-03-29T10:26:32.523Z,2.40
2023-03-29T10:29:01.913Z,1.53
2023-03-29T10:31:31.457Z,1.57
2023-03-29T10:34:04.759Z,4.40
2023-03-29T10:36:32.881Z,2.63
2023-03-29T10:39:06.197Z,2.37
2023-03-29T10:41:36.734Z,1.70
2023-03-29T10:44:05.202Z,3.40
2023-03-29T10:46:41.091Z,3.60
2023-03-29T10:49:19.645Z,2.17
2023-03-29T10:51:49.302Z,1.93
2023-03-29T10:54:22.159Z,3.30
2023-03-29T10:56:54.978Z,4.77
2023-03-29T10:59:28.650Z,2.23
2023-03-29T11:02:26.049Z,2.53
2023-03-29T11:05:06.263Z,1.63
2023-03-29T11:07:39.779Z,2.73
2023-03-29T11:10:28.375Z,1.97
2023-03-29T11:13:02.252Z,3.10
2023-03-29T11:15:41.568Z,1.87
2023-03-29T11:18:31.603Z,3.13
2023-03-29T11:21:11.082Z,2.53
2023-03-29T11:23:50.777Z,2.70
2023-03-29T11:26:24.390Z,3.10
2023-03-29T11:28:57.705Z,3.80
2023-03-29T11:31:37.989Z,2.07
2023-03-29T11:34:20.798Z,2.23
2023-03-29T11:36:57.349Z,3.30
2023-03-29T11:39:36.582Z,2.83
2023-03-29T11:42:13.171Z,1.80
2023-03-29T11:44:43.161Z,1.57
2023-03-29T11:47:15.202Z,2.10
2023-03-29T11:49:49.138Z,1.97
2023-03-29T11:52:22.399Z,3.07
2023-03-29T11:54:53.415Z,1.23
2023-03-29T11:57:27.806Z,1.77
2023-03-29T12:03:02.047Z,2.93
2023-03-29T12:05:35.049Z,2.03
2023-03-29T12:08:06.899Z,3.40
2023-03-29T12:10:38.729Z,1.43
2023-03-29T12:13:16.354Z,1.57
2023-03-29T12:15:49.637Z,3.83
2023-03-29T12:18:22.379Z,4.97
2023-03-29T12:20:57.495Z,4.40
2023-03-29T12:23:27.437Z,2.13
2023-03-29T12:26:04.904Z,2.50
2023-03-29T12:29:05.320Z,2.53
2023-03-29T12:31:41.970Z,1.53
2023-03-29T12:34:22.044Z,2.23
2023-03-29T12:37:33.901Z,1.43
2023-03-29T12:40:22.018Z,4.10
2023-03-29T12:43:09.837Z,1.37
2023-03-29T12:46:06.876Z,3.87
2023-03-29T12:48:38.283Z,3.80
2023-03-29T12:51:09.906Z,2.13
2023-03-29T12:53:41.462Z,2.53
2023-03-29T12:56:16.079Z,3.07
2023-03-29T12:58:54.209Z,2.97
2023-03-29T13:01:29.207Z,3.70
2023-03-29T13:04:13.772Z,2.90
2023-03-29T13:07:03.941Z,4.80
2023-03-29T13:09:35.657Z,4.50
2023-03-29T13:12:10.194Z,3.53
2023-03-29T13:14:42.671Z,3.33
2023-03-29T13:17:25.734Z,4.43
2023-03-29T13:20:09.259Z,2.93
2023-03-29T13:22:48.840Z,3.87
2023-03-29T13:25:46.152Z,4.37
2023-03-29T13:28:23.289Z,3.63
2023-03-29T13:31:00.151Z,3.03
2023-03-29T13:33:58.565Z,4.03
2023-03-29T13:36:39.640Z,1.83
2023-03-29T13:39:08.762Z,2.60
2023-03-29T13:41:49.405Z,1.27
2023-03-29T13:44:30.189Z,2.67
2023-03-29T13:47:10.986Z,2.20
2023-03-29T13:49:43.946Z,1.70
2023-03-29T13:52:19.840Z,2.37
2023-03-29T13:54:54.853Z,1.53
2023-03-29T13:57:26.152Z,3.00
2023-03-29T14:00:00.505Z,4.20
2023-03-29T14:02:56.905Z,1.70
2023-03-29T14:05:31.519Z,2.93
2023-03-29T14:08:09.562Z,3.93
2023-03-29T14:10:41.619Z,1.90
2023-03-29T14:13:13.708Z,4.53
2023-03-29T14:15:46.313Z,4.80
2023-03-29T14:18:17.450Z,1.80
2023-03-29T14:20:49.139Z,5.97
2023-03-29T14:23:21.823Z,7.10
2023-03-29T14:25:49.896Z,4.83
2023-03-29T14:28:23.192Z,2.90
2023-03-29T14:30:52.784Z,2.93
2023-03-29T14:33:34.426Z,1.60
2023-03-29T14:36:05.896Z,6.17
2023-03-29T14:38:37.157Z,5.03
2023-03-29T14:41:05.411Z,6.27
2023-03-29T14:43:33.641Z,2.97
2023-03-29T14:46:06.996Z,3.87
2023-03-29T14:48:35.766Z,4.10
2023-03-29T14:51:05.984Z,7.00
2023-03-29T14:53:34.480Z,2.77
2023-03-29T14:56:02.561Z,5.40
2023-03-29T14:58:34.225Z,3.33
2023-03-29T15:01:06.979Z,5.27
2023-03-29T15:03:44.430Z,2.70
2023-03-29T15:06:15.088Z,2.70
2023-03-29T15:08:51.111Z,2.07
2023-03-29T15:11:24.235Z,3.60
2023-03-29T15:13:55.156Z,5.10
2023-03-29T15:16:23.492Z,2.60
2023-03-29T15:18:53.856Z,3.43
2023-03-29T15:21:23.697Z,1.90
2023-03-29T15:23:54.815Z,4.57
2023-03-29T15:26:26.189Z,3.70
2023-03-29T15:28:57.457Z,3.20
2023-03-29T15:31:27.494Z,2.80
2023-03-29T15:34:06.235Z,4.20
2023-03-29T15:36:42.111Z,4.70
2023-03-29T15:39:13.475Z,5.67
2023-03-29T15:41:41.724Z,5.83
2023-03-29T15:44:09.691Z,6.43
2023-03-29T15:46:37.973Z,5.23
2023-03-29T15:49:05.997Z,5.87
2023-03-29T15:51:33.753Z,4.43
2023-03-29T15:54:02.944Z,4.07
2023-03-29T15:56:33.410Z,5.33
2023-03-29T15:59:01.710Z,4.33
2023-03-29T16:01:35.218Z,9.53
2023-03-29T16:04:03.704Z,7.13
2023-03-29T16:06:31.631Z,5.03
2023-03-29T16:08:59.569Z,4.93
2023-03-29T16:11:29.115Z,5.47
2023-03-29T16:13:57.768Z,3.80
2023-03-29T16:16:26.081Z,5.27
2023-03-29T16:18:53.896Z,4.53
2023-03-29T16:21:23.327Z,3.37
2023-03-29T16:23:51.739Z,4.07
2023-03-29T16:26:19.544Z,5.27
2023-03-29T16:28:48.785Z,2.93
2023-03-29T16:31:16.631Z,5.47
2023-03-29T16:33:44.758Z,3.57
2023-03-29T16:36:13.137Z,3.40
2023-03-29T16:38:41.547Z,5.20
2023-03-29T16:41:12.559Z,6.27
2023-03-29T16:43:40.441Z,4.83
2023-03-29T16:46:10.251Z,4.77
2023-03-29T16:48:38.541Z,7.40
2023-03-29T16:51:10.106Z,4.93
2023-03-29T16:53:38.127Z,7.27
2023-03-29T16:56:07.861Z,4.77
2023-03-29T16:58:36.187Z,5.63
2023-03-29T17:01:16.694Z,4.80
2023-03-29T17:03:45.029Z,6.60
2023-03-29T17:06:12.992Z,7.47
2023-03-29T17:08:42.391Z,8.03
2023-03-29T17:11:11.756Z,6.60
2023-03-29T17:13:40.306Z,7.87
2023-03-29T17:16:09.266Z,9.77
2023-03-29T17:18:38.640Z,14.07
2023-03-29T17:21:07.451Z,8.63
2023-03-29T17:23:35.351Z,10.07
2023-03-29T17:26:03.436Z,9.93
2023-03-29T17:28:31.420Z,12.50
2023-03-29T17:30:59.408Z,13.33
2023-03-29T17:33:27.339Z,16.30
2023-03-29T17:35:57.583Z,15.23
2023-03-29T17:38:26.674Z,11.23
2023-03-29T17:40:54.809Z,12.47
2023-03-29T17:43:23.152Z,14.73
2023-03-29T17:45:54.600Z,18.77
2023-03-29T17:48:24.469Z,9.80
2023-03-29T17:50:52.394Z,11.40
2023-03-29T17:53:21.687Z,14.67
2023-03-29T17:55:49.465Z,11.23
2023-03-29T17:58:17.337Z,10.50
2023-03-29T18:00:45.150Z,12.37
2023-03-29T18:03:13.023Z,6.53
2023-03-29T18:05:40.827Z,9.93
2023-03-29T18:08:09.121Z,12.40
2023-03-29T18:10:38.280Z,9.60
2023-03-29T18:13:05.995Z,7.17
2023-03-29T18:15:33.750Z,7.13
2023-03-29T18:18:01.609Z,8.80
2023-03-29T18:20:29.520Z,10.00
2023-03-29T18:22:57.434Z,6.87
2023-03-29T18:25:26.255Z,9.03
2023-03-29T18:27:55.473Z,10.40
2023-03-29T18:30:23.272Z,10.50
2023-03-29T18:32:51.064Z,7.30
2023-03-29T18:35:18.908Z,11.07
2023-03-29T18:37:46.966Z,8.43
2023-03-29T18:40:15.584Z,10.43
2023-03-29T18:42:43.374Z,9.27
2023-03-29T18:45:13.554Z,9.10
2023-03-29T18:47:41.407Z,7.97
2023-03-29T18:50:10.351Z,7.63
2023-03-29T18:52:38.188Z,9.67
2023-03-29T18:55:07.347Z,8.87
2023-03-29T18:57:35.220Z,7.13
2023-03-29T19:00:12.577Z,7.83
2023-03-29T19:02:42.421Z,11.13
2023-03-29T19:05:11.279Z,6.53
2023-03-29T19:07:39.187Z,10.53
2023-03-29T19:10:08.570Z,10.10
2023-03-29T19:12:41.243Z,7.80
2023-03-29T19:15:10.724Z,8.47
2023-03-29T19:17:38.522Z,8.97
2023-03-29T19:20:10.024Z,5.67
2023-03-29T19:22:37.888Z,11.47
2023-03-29T19:25:07.493Z,7.17
2023-03-29T19:27:35.326Z,5.93
2023-03-29T19:30:03.119Z,11.20
2023-03-29T19:32:32.517Z,7.63
2023-03-29T19:35:01.483Z,7.67
2023-03-29T19:37:30.804Z,9.07
2023-03-29T19:39:58.643Z,6.97
2023-03-29T19:42:26.506Z,11.33
2023-03-29T19:44:54.246Z,5.53
2023-03-29T19:47:22.050Z,7.30
2023-03-29T19:49:50.280Z,6.33
2023-03-29T19:52:18.080Z,7.83
2023-03-29T19:54:47.349Z,6.37
2023-03-29T19:57:15.279Z,6.90
2023-03-29T19:59:43.294Z,7.37
2023-03-29T20:02:11.845Z,8.07
2023-03-29T20:04:40.046Z,7.40
2023-03-29T20:07:08.391Z,4.70
2023-03-29T20:09:36.587Z,6.57
2023-03-29T20:12:06.145Z,9.30
2023-03-29T20:14:34.959Z,8.00
2023-03-29T20:17:05.791Z,10.13
2023-03-29T20:19:36.557Z,5.83
2023-03-29T20:22:05.314Z,11.53
2023-03-29T20:24:34.633Z,7.00
2023-03-29T20:27:04.460Z,7.80
2023-03-29T20:29:34.442Z,9.93
2023-03-29T20:32:02.584Z,7.30
2023-03-29T20:34:30.834Z,5.13
2023-03-29T20:37:00.855Z,7.30
2023-03-29T20:39:29.585Z,9.13
2023-03-29T20:41:57.522Z,10.47
2023-03-29T20:44:26.292Z,10.60
2023-03-29T20:47:03.363Z,6.50
2023-03-29T20:49:37.210Z,7.83
2023-03-29T20:52:08.286Z,8.53
2023-03-29T20:54:36.986Z,9.30
2023-03-29T20:57:05.347Z,8.93
2023-03-29T20:59:34.339Z,5.47
2023-03-29T21:02:03.560Z,10.30
2023-03-29T21:04:31.793Z,11.97
2023-03-29T21:07:02.492Z,8.13
2023-03-29T21:09:31.026Z,8.40
2023-03-29T21:11:58.868Z,8.77
2023-03-29T21:14:26.703Z,8.77
2023-03-29T21:16:54.629Z,11.03
2023-03-29T21:19:24.209Z,8.33
2023-03-29T21:21:52.305Z,14.07
2023-03-29T21:24:20.257Z,6.53
2023-03-29T21:26:48.376Z,13.87
2023-03-29T21:29:16.283Z,11.07
2023-03-29T21:31:44.200Z,10.30
2023-03-29T21:34:12.051Z,12.07
2023-03-29T21:36:42.323Z,7.27
2023-03-29T21:39:10.159Z,7.93
2023-03-29T21:41:37.989Z,7.37
2023-03-29T21:44:05.770Z,8.70
2023-03-29T21:46:33.641Z,12.97
2023-03-29T21:49:01.564Z,9.00
2023-03-29T21:51:29.367Z,7.20
2023-03-29T21:53:58.532Z,8.73
2023-03-29T21:56:26.431Z,7.40
2023-03-29T21:58:54.258Z,8.23
2023-03-29T22:01:22.109Z,10.30
2023-03-29T22:03:49.977Z,9.70
2023-03-29T22:06:17.753Z,6.60
2023-03-29T22:08:46.692Z,6.30
2023-03-29T22:11:17.509Z,8.73
2023-03-29T22:13:45.930Z,8.33
2023-03-29T22:16:16.808Z,7.30
2023-03-29T22:18:49.073Z,7.13
2023-03-29T22:21:19.271Z,6.73
2023-03-29T22:23:49.711Z,7.07
2023-03-29T22:26:21.393Z,7.23
2023-03-29T22:28:49.214Z,5.30
2023-03-29T22:31:19.131Z,7.73
2023-03-29T22:33:47.559Z,9.47
2023-03-29T22:36:17.215Z,6.53
2023-03-29T22:38:46.251Z,8.00
2023-03-29T22:41:15.094Z,6.00
2023-03-29T22:43:44.306Z,5.80
2023-03-29T22:46:14.433Z,9.60
2023-03-29T22:48:42.288Z,6.43
2023-03-29T22:51:10.079Z,6.30
2023-03-29T22:53:37.885Z,9.63
2023-03-29T22:56:07.000Z,11.00
2023-03-29T22:58:34.927Z,7.20
2023-03-29T23:01:04.821Z,7.87
2023-03-29T23:03:33.371Z,7.37
2023-03-29T23:06:02.309Z,7.27
2023-03-29T23:08:31.845Z,4.67
2023-03-29T23:11:00.123Z,7.77
2023-03-29T23:13:29.091Z,10.30
2023-03-29T23:15:59.273Z,6.73
2023-03-29T23:18:30.424Z,10.10
2023-03-29T23:21:00.327Z,5.80
2023-03-29T23:23:29.188Z,7.33
2023-03-29T23:25:57.870Z,6.83
2023-03-29T23:28:30.211Z,7.13
2023-03-29T23:31:00.323Z,5.73
2023-03-29T23:33:33.215Z,8.03
2023-03-29T23:36:03.332Z,6.67
2023-03-29T23:38:31.902Z,12.80
2023-03-29T23:41:02.038Z,9.27
2023-03-29T23:43:35.383Z,8.93
2023-03-29T23:46:04.477Z,8.97
2023-03-29T23:48:34.235Z,5.90
2023-03-29T23:51:03.012Z,5.93
2023-03-29T23:53:32.075Z,11.07
2023-03-29T23:56:01.558Z,8.97
2023-03-29T23:58:29.909Z,11.07
